Time;durP1;ratioP1;P1;durP2;ratioP2;P2;SDS_P1;SDS_P2;PMS_P1;PMS_P2;Temp;Humidity;BMP_temperature;BMP_pressure;BME280_temperature;BME280_humidity;BME280_pressure;Samples;Min_cycle;Max_cycle;Signal;HPM_P1;HPM_P2
2021/07/06 00:01:11;;;;;;;5.30;2.22;;;;;;;;;;4975972;28;20089;-70
2021/07/06 00:03:38;;;;;;;3.75;2.00;;;;;;;;;;4975589;28;20090;-70
2021/07/06 00:06:04;;;;;;;5.95;2.20;;;;;;;;;;4976381;28;20051;-69
2021/07/06 00:08:31;;;;;;;4.40;2.30;;;;;;;;;;4975066;28;20557;-70
2021/07/06 00:10:57;;;;;;;4.57;1.88;;;;;;;;;;4975953;28;20047;-69
2021/07/06 00:13:24;;;;;;;2.10;1.85;;;;;;;;;;4976177;28;20066;-69
2021/07/06 00:15:51;;;;;;;3.50;1.85;;;;;;;;;;4977034;28;20129;-70
2021/07/06 00:18:17;;;;;;;4.35;2.38;;;;;;;;;;4976372;28;20706;-71
2021/07/06 00:20:44;;;;;;;7.05;2.33;;;;;;;;;;4976492;28;20078;-70
2021/07/06 00:23:11;;;;;;;3.00;2.35;;;;;;;;;;4976044;28;20054;-71
2021/07/06 00:25:37;;;;;;;3.13;2.47;;;;;;;;;;4975940;28;20058;-70
2021/07/06 00:28:04;;;;;;;3.85;2.60;;;;;;;;;;4976363;28;20134;-70
2021/07/06 00:30:31;;;;;;;4.35;2.25;;;;;;;;;;4975977;28;20090;-70
2021/07/06 00:32:57;;;;;;;2.72;2.33;;;;;;;;;;4975961;28;20059;-71
2021/07/06 00:35:24;;;;;;;3.50;2.05;;;;;;;;;;4975675;28;20090;-69
2021/07/06 00:37:51;;;;;;;2.97;2.47;;;;;;;;;;4976221;28;20466;-70
2021/07/06 00:40:18;;;;;;;3.70;2.10;;;;;;;;;;4975735;28;20133;-71
2021/07/06 00:42:48;;;;;;;4.28;1.90;;;;;;;;;;4975577;28;20121;-70
2021/07/06 00:45:15;;;;;;;3.50;1.95;;;;;;;;;;4975511;28;20430;-70
2021/07/06 00:47:43;;;;;;;5.88;2.08;;;;;;;;;;4975777;28;20186;-71
2021/07/06 00:50:14;;;;;;;4.35;2.10;;;;;;;;;;4975327;28;20046;-70
2021/07/06 00:52:40;;;;;;;3.30;2.22;;;;;;;;;;4975632;28;20074;-69
2021/07/06 00:55:08;;;;;;;5.20;2.53;;;;;;;;;;4975066;28;20086;-71
2021/07/06 00:57:35;;;;;;;2.47;1.92;;;;;;;;;;4975429;28;20134;-70
2021/07/06 01:00:08;;;;;;;2.80;1.80;;;;;;;;;;4974469;28;20082;-70
2021/07/06 01:02:34;;;;;;;2.70;1.83;;;;;;;;;;4975333;28;20156;-69
2021/07/06 01:05:03;;;;;;;7.88;2.58;;;;;;;;;;4975173;28;20090;-70
2021/07/06 01:07:29;;;;;;;3.92;2.15;;;;;;;;;;4975070;28;20097;-70
2021/07/06 01:09:56;;;;;;;3.70;1.88;;;;;;;;;;4974157;28;20085;-71
2021/07/06 01:12:22;;;;;;;5.22;2.17;;;;;;;;;;4975215;28;20074;-70
2021/07/06 01:14:49;;;;;;;3.22;1.80;;;;;;;;;;4975358;28;20142;-70
2021/07/06 01:17:24;;;;;;;3.90;2.08;;;;;;;;;;4975214;28;20105;-70
2021/07/06 01:19:51;;;;;;;6.35;2.20;;;;;;;;;;4975173;28;20090;-70
2021/07/06 01:22:31;;;;;;;2.42;2.22;;;;;;;;;;4974820;28;20517;-70
2021/07/06 01:24:59;;;;;;;4.35;2.15;;;;;;;;;;4975818;28;20086;-70
2021/07/06 01:27:26;;;;;;;3.92;1.98;;;;;;;;;;4974918;28;20150;-70
2021/07/06 01:29:55;;;;;;;2.78;1.80;;;;;;;;;;4975148;28;20129;-70
2021/07/06 01:32:22;;;;;;;2.28;2.00;;;;;;;;;;4974490;28;20481;-70
2021/07/06 01:34:49;;;;;;;5.55;1.95;;;;;;;;;;4973741;28;20055;-68
2021/07/06 01:37:17;;;;;;;3.38;1.80;;;;;;;;;;4974655;28;20078;-70
2021/07/06 01:39:45;;;;;;;3.58;1.90;;;;;;;;;;4975421;28;20086;-70
2021/07/06 01:42:18;;;;;;;4.70;1.90;;;;;;;;;;4974076;28;20456;-69
2021/07/06 01:44:45;;;;;;;5.07;2.03;;;;;;;;;;4974597;28;20046;-71
2021/07/06 01:47:12;;;;;;;3.92;2.00;;;;;;;;;;4974780;28;20058;-71
2021/07/06 01:49:39;;;;;;;2.03;1.83;;;;;;;;;;4974664;28;20494;-71
2021/07/06 01:52:06;;;;;;;3.22;1.98;;;;;;;;;;4974111;28;20371;-70
2021/07/06 01:54:32;;;;;;;2.30;2.10;;;;;;;;;;4974469;28;20101;-70
2021/07/06 01:56:59;;;;;;;7.18;2.15;;;;;;;;;;4974171;28;20055;-70
2021/07/06 01:59:26;;;;;;;3.17;1.90;;;;;;;;;;4974268;28;20481;-70
2021/07/06 02:01:52;;;;;;;6.93;2.60;;;;;;;;;;4973988;28;20082;-70
2021/07/06 02:04:19;;;;;;;4.80;1.95;;;;;;;;;;4974091;28;20433;-71
2021/07/06 02:06:46;;;;;;;4.38;1.80;;;;;;;;;;4974178;28;20083;-71
2021/07/06 02:09:12;;;;;;;3.25;2.10;;;;;;;;;;4974058;28;20081;-69
2021/07/06 02:11:39;;;;;;;5.32;1.90;;;;;;;;;;4974188;28;20051;-70
2021/07/06 02:14:05;;;;;;;4.32;3.50;;;;;;;;;;4956763;28;20083;-70
2021/07/06 02:16:32;;;;;;;2.20;1.88;;;;;;;;;;4973804;28;20137;-70
2021/07/06 02:18:59;;;;;;;5.95;2.22;;;;;;;;;;4974065;28;20105;-69
2021/07/06 02:21:26;;;;;;;3.28;1.52;;;;;;;;;;4972172;28;20120;-70
2021/07/06 02:23:53;;;;;;;3.10;1.85;;;;;;;;;;4974042;28;20081;-70
2021/07/06 02:26:19;;;;;;;2.88;1.77;;;;;;;;;;4973473;28;20474;-70
2021/07/06 02:28:46;;;;;;;2.30;1.83;;;;;;;;;;4973889;28;20170;-71
2021/07/06 02:31:12;;;;;;;5.70;2.05;;;;;;;;;;4973527;28;20092;-71
2021/07/06 02:33:39;;;;;;;3.83;2.20;;;;;;;;;;4973751;28;20055;-70
2021/07/06 02:36:07;;;;;;;3.13;1.60;;;;;;;;;;4973515;28;20055;-71
2021/07/06 02:38:35;;;;;;;3.85;2.13;;;;;;;;;;4973719;28;20054;-71
2021/07/06 02:41:01;;;;;;;2.90;2.03;;;;;;;;;;4952629;29;20098;-70
2021/07/06 02:43:28;;;;;;;2.63;1.80;;;;;;;;;;4954525;28;20054;-71
2021/07/06 02:45:54;;;;;;;3.53;1.70;;;;;;;;;;4971412;28;20133;-71
2021/07/06 02:48:21;;;;;;;4.35;2.03;;;;;;;;;;4973286;28;20086;-70
2021/07/06 02:50:48;;;;;;;2.50;1.70;;;;;;;;;;4973315;28;20510;-70
2021/07/06 02:53:14;;;;;;;4.82;2.40;;;;;;;;;;4973251;28;20469;-70
2021/07/06 02:55:41;;;;;;;3.58;1.70;;;;;;;;;;4973103;28;20134;-71
2021/07/06 02:58:08;;;;;;;4.85;2.10;;;;;;;;;;4973115;28;20074;-70
2021/07/06 03:00:36;;;;;;;3.45;1.95;;;;;;;;;;4973564;28;20343;-71
2021/07/06 03:03:05;;;;;;;3.33;2.30;;;;;;;;;;4972927;28;20129;-70
2021/07/06 03:05:32;;;;;;;2.40;2.05;;;;;;;;;;4972116;28;20454;-70
2021/07/06 03:08:00;;;;;;;6.18;1.95;;;;;;;;;;4973332;28;20051;-70
2021/07/06 03:10:29;;;;;;;8.40;2.33;;;;;;;;;;4972959;28;20082;-70
2021/07/06 03:12:56;;;;;;;1.88;1.77;;;;;;;;;;4973183;28;20086;-70
2021/07/06 03:15:25;;;;;;;3.80;1.80;;;;;;;;;;4972918;28;20065;-70
2021/07/06 03:17:51;;;;;;;4.30;2.20;;;;;;;;;;4973458;28;20414;-70
2021/07/06 03:20:20;;;;;;;2.20;2.05;;;;;;;;;;4972739;28;20054;-71
2021/07/06 03:22:47;;;;;;;3.28;2.13;;;;;;;;;;4984587;28;20058;-69
2021/07/06 03:25:16;;;;;;;4.82;1.90;;;;;;;;;;4982410;28;20061;-71
2021/07/06 03:27:43;;;;;;;1.92;1.60;;;;;;;;;;4975561;28;20047;-71
2021/07/06 03:30:17;;;;;;;6.13;1.90;;;;;;;;;;4973783;28;20055;-70
2021/07/06 03:32:43;;;;;;;2.95;1.83;;;;;;;;;;4982050;28;20082;-71
2021/07/06 03:35:10;;;;;;;4.10;2.22;;;;;;;;;;4988274;28;20051;-70
2021/07/06 03:37:37;;;;;;;6.15;2.80;;;;;;;;;;4986348;28;20050;-70
2021/07/06 03:40:06;;;;;;;3.90;2.33;;;;;;;;;;4988022;28;20078;-70
2021/07/06 03:42:32;;;;;;;3.53;2.35;;;;;;;;;;4999007;28;20069;-67
2021/07/06 03:44:59;;;;;;;4.00;2.70;;;;;;;;;;5003513;28;20051;-68
2021/07/06 03:47:25;;;;;;;7.82;5.88;;;;;;;;;;5004323;28;20030;-69
2021/07/06 03:49:52;;;;;;;3.50;2.70;;;;;;;;;;5004152;28;20027;-68
2021/07/06 03:52:18;;;;;;;3.88;3.10;;;;;;;;;;5004438;28;20042;-68
2021/07/06 03:54:49;;;;;;;4.70;2.50;;;;;;;;;;5025819;23;20074;-66
2021/07/06 03:57:28;;;;;;;7.93;3.03;;;;;;;;;;4978523;28;20102;-66
2021/07/06 03:59:58;;;;;;;4.00;2.53;;;;;;;;;;4979163;28;20087;-66
2021/07/06 04:02:24;;;;;;;8.00;3.22;;;;;;;;;;4979007;28;20085;-66
2021/07/06 04:04:51;;;;;;;5.53;2.65;;;;;;;;;;4978790;28;20465;-66
2021/07/06 04:07:18;;;;;;;4.43;2.60;;;;;;;;;;4978962;28;20078;-66
2021/07/06 04:09:45;;;;;;;3.35;2.20;;;;;;;;;;4979068;28;20078;-66
2021/07/06 04:12:12;;;;;;;3.53;2.22;;;;;;;;;;4978727;28;20094;-66
2021/07/06 04:14:39;;;;;;;5.25;2.17;;;;;;;;;;4961587;28;20085;-66
2021/07/06 04:17:05;;;;;;;2.28;1.95;;;;;;;;;;4978862;28;20117;-66
2021/07/06 04:19:32;;;;;;;5.25;2.00;;;;;;;;;;4978721;28;20086;-66
2021/07/06 04:21:58;;;;;;;3.97;2.50;;;;;;;;;;4978666;28;20097;-66
2021/07/06 04:24:25;;;;;;;5.38;1.95;;;;;;;;;;4979046;28;20082;-66
2021/07/06 04:26:52;;;;;;;4.65;2.00;;;;;;;;;;4978652;28;20078;-66
2021/07/06 04:29:18;;;;;;;2.72;1.75;;;;;;;;;;4978834;28;20085;-66
2021/07/06 04:31:45;;;;;;;2.22;1.90;;;;;;;;;;4978948;28;20050;-66
2021/07/06 04:34:12;;;;;;;2.83;1.92;;;;;;;;;;4978657;28;20327;-66
2021/07/06 04:36:38;;;;;;;5.32;1.92;;;;;;;;;;4978585;28;20082;-66
2021/07/06 04:39:05;;;;;;;6.40;2.03;;;;;;;;;;4978411;28;20074;-66
2021/07/06 04:41:31;;;;;;;2.42;2.22;;;;;;;;;;4978323;28;20101;-66
2021/07/06 04:43:58;;;;;;;3.60;1.92;;;;;;;;;;4977708;28;20490;-66
2021/07/06 04:46:24;;;;;;;5.00;2.17;;;;;;;;;;4975305;28;20090;-66
2021/07/06 04:48:51;;;;;;;6.90;2.15;;;;;;;;;;4975679;28;20115;-66
2021/07/06 04:51:17;;;;;;;5.65;1.92;;;;;;;;;;4975243;28;20074;-66
2021/07/06 04:53:45;;;;;;;3.15;2.03;;;;;;;;;;4975230;28;20043;-66
2021/07/06 04:56:11;;;;;;;2.17;1.73;;;;;;;;;;4975167;28;20129;-66
2021/07/06 04:58:38;;;;;;;3.42;2.03;;;;;;;;;;4975713;28;20133;-66
2021/07/06 05:01:05;;;;;;;2.45;1.75;;;;;;;;;;4975301;28;20524;-66
2021/07/06 05:03:32;;;;;;;4.53;1.90;;;;;;;;;;4975214;28;20510;-66
2021/07/06 05:05:59;;;;;;;2.35;1.42;;;;;;;;;;4975267;28;20082;-66
2021/07/06 05:08:25;;;;;;;3.55;1.73;;;;;;;;;;4975172;28;20046;-66
2021/07/06 05:10:52;;;;;;;4.18;1.42;;;;;;;;;;4975089;28;20086;-66
2021/07/06 05:13:19;;;;;;;2.17;1.73;;;;;;;;;;4974972;28;20129;-66
2021/07/06 05:15:45;;;;;;;6.75;1.70;;;;;;;;;;4975130;28;20058;-66
2021/07/06 05:18:12;;;;;;;4.47;1.58;;;;;;;;;;4974922;28;20097;-66
2021/07/06 05:20:39;;;;;;;3.63;1.58;;;;;;;;;;4975133;28;20047;-66
2021/07/06 05:23:05;;;;;;;3.92;1.70;;;;;;;;;;4961340;28;20083;-67
2021/07/06 05:25:32;;;;;;;3.35;1.90;;;;;;;;;;4955552;29;20089;-67
2021/07/06 05:27:58;;;;;;;5.72;2.00;;;;;;;;;;4960854;28;20078;-67
2021/07/06 05:30:25;;;;;;;2.95;1.50;;;;;;;;;;4974917;28;20074;-67
2021/07/06 05:32:51;;;;;;;4.07;1.13;;;;;;;;;;4973938;28;20477;-67
2021/07/06 05:35:18;;;;;;;2.97;1.80;;;;;;;;;;4973273;28;20055;-67
2021/07/06 05:37:45;;;;;;;2.47;1.50;;;;;;;;;;4973149;28;20093;-67
2021/07/06 05:40:13;;;;;;;2.65;1.60;;;;;;;;;;4974493;28;20057;-67
2021/07/06 05:42:39;;;;;;;6.57;2.47;;;;;;;;;;4973387;28;20075;-67
2021/07/06 05:45:07;;;;;;;2.55;1.80;;;;;;;;;;4972284;28;20062;-68
2021/07/06 05:47:36;;;;;;;2.75;1.55;;;;;;;;;;4972368;28;20051;-68
2021/07/06 05:50:03;;;;;;;1.98;1.42;;;;;;;;;;4972181;28;20134;-68
2021/07/06 05:52:30;;;;;;;2.70;1.90;;;;;;;;;;4971826;28;20506;-68
2021/07/06 05:54:56;;;;;;;2.30;1.80;;;;;;;;;;4971959;28;20469;-68
2021/07/06 05:57:29;;;;;;;2.53;1.25;;;;;;;;;;4971606;28;20082;-67
2021/07/06 06:00:00;;;;;;;1.75;1.60;;;;;;;;;;4972355;28;20057;-68
2021/07/06 06:02:28;;;;;;;3.92;1.25;;;;;;;;;;4972259;28;20147;-68
2021/07/06 06:04:55;;;;;;;2.70;1.50;;;;;;;;;;4972053;28;20055;-68
2021/07/06 06:07:23;;;;;;;1.85;1.50;;;;;;;;;;4954701;28;20078;-68
2021/07/06 06:09:50;;;;;;;2.58;1.30;;;;;;;;;;4971755;28;20082;-68
2021/07/06 06:12:17;;;;;;;2.47;1.40;;;;;;;;;;4971864;28;20078;-68
2021/07/06 06:14:43;;;;;;;5.47;1.45;;;;;;;;;;4954697;28;20086;-68
2021/07/06 06:17:10;;;;;;;3.83;1.30;;;;;;;;;;4970633;28;20453;-68
2021/07/06 06:19:36;;;;;;;8.68;2.33;;;;;;;;;;4972063;28;20090;-68
2021/07/06 06:22:04;;;;;;;2.22;1.50;;;;;;;;;;4971047;28;20501;-69
2021/07/06 06:24:31;;;;;;;2.40;1.60;;;;;;;;;;4971711;28;20530;-68
2021/07/06 06:26:57;;;;;;;2.60;1.67;;;;;;;;;;4971571;28;20050;-68
2021/07/06 06:29:24;;;;;;;4.60;2.40;;;;;;;;;;4971283;28;20090;-68
2021/07/06 06:31:50;;;;;;;6.72;5.10;;;;;;;;;;4971936;28;20051;-68
2021/07/06 06:34:17;;;;;;;8.45;4.97;;;;;;;;;;4971341;28;20089;-68
2021/07/06 06:36:44;;;;;;;11.93;5.88;;;;;;;;;;4970916;28;20059;-68
2021/07/06 06:39:10;;;;;;;5.43;4.13;;;;;;;;;;4972779;28;20086;-68
2021/07/06 06:41:38;;;;;;;4.20;2.40;;;;;;;;;;4973328;28;20163;-68
2021/07/06 06:44:04;;;;;;;4.22;2.72;;;;;;;;;;4972856;28;20074;-68
2021/07/06 06:46:31;;;;;;;5.68;2.63;;;;;;;;;;4973000;28;20180;-68
2021/07/06 06:49:00;;;;;;;4.65;2.75;;;;;;;;;;4973449;28;20059;-68
2021/07/06 06:51:27;;;;;;;4.22;2.17;;;;;;;;;;4973283;28;20078;-68
2021/07/06 06:53:53;;;;;;;4.28;2.40;;;;;;;;;;4973468;28;20077;-68
2021/07/06 06:56:20;;;;;;;4.85;1.60;;;;;;;;;;4972857;28;20082;-68
2021/07/06 06:58:47;;;;;;;2.13;1.50;;;;;;;;;;4973403;28;20077;-68
2021/07/06 07:01:13;;;;;;;2.90;1.70;;;;;;;;;;4973182;28;20055;-68
2021/07/06 07:03:40;;;;;;;3.17;1.55;;;;;;;;;;4973207;28;20047;-68
2021/07/06 07:06:07;;;;;;;3.53;1.38;;;;;;;;;;4972913;28;20042;-68
2021/07/06 07:08:33;;;;;;;3.70;1.48;;;;;;;;;;4972609;28;20058;-68
2021/07/06 07:11:00;;;;;;;1.38;1.00;;;;;;;;;;4973954;28;20075;-68
2021/07/06 07:13:27;;;;;;;3.58;1.15;;;;;;;;;;4973123;28;20058;-71
2021/07/06 07:15:54;;;;;;;3.42;1.20;;;;;;;;;;4962819;28;20517;-71
2021/07/06 07:18:21;;;;;;;1.42;1.00;;;;;;;;;;4965178;28;20163;-67
2021/07/06 07:20:48;;;;;;;1.63;1.00;;;;;;;;;;4964253;28;20469;-67
2021/07/06 07:23:15;;;;;;;6.10;0.98;;;;;;;;;;4964256;28;20062;-67
2021/07/06 07:25:41;;;;;;;1.05;0.80;;;;;;;;;;4960545;28;20086;-67
2021/07/06 07:28:08;;;;;;;0.93;0.90;;;;;;;;;;4963142;28;20082;-68
2021/07/06 07:30:35;;;;;;;2.22;0.80;;;;;;;;;;4965368;28;20097;-67
2021/07/06 07:33:02;;;;;;;2.72;1.00;;;;;;;;;;4981549;28;20042;-68
2021/07/06 07:35:28;;;;;;;0.98;0.90;;;;;;;;;;4995866;28;20050;-68
2021/07/06 07:37:55;;;;;;;2.08;0.90;;;;;;;;;;4995206;28;20070;-68
2021/07/06 07:40:21;;;;;;;2.13;0.95;;;;;;;;;;4996628;28;20539;-68
2021/07/06 07:42:48;;;;;;;2.22;0.85;;;;;;;;;;4995855;28;20085;-68
2021/07/06 07:45:16;;;;;;;6.30;1.42;;;;;;;;;;4996306;28;20056;-68
2021/07/06 07:47:43;;;;;;;2.45;0.80;;;;;;;;;;4965524;28;20373;-68
2021/07/06 07:50:10;;;;;;;2.53;0.95;;;;;;;;;;4976922;28;20051;-68
2021/07/06 07:52:36;;;;;;;0.80;0.80;;;;;;;;;;4975694;28;20089;-68
2021/07/06 07:55:05;;;;;;;1.35;0.77;;;;;;;;;;4975976;28;20054;-68
2021/07/06 07:57:31;;;;;;;2.63;1.13;;;;;;;;;;4977099;28;20473;-68
2021/07/06 07:59:58;;;;;;;3.70;0.80;;;;;;;;;;4976445;28;20110;-68
2021/07/06 08:02:25;;;;;;;2.63;0.85;;;;;;;;;;4977380;28;20082;-68
2021/07/06 08:04:51;;;;;;;1.00;0.90;;;;;;;;;;4978046;28;20051;-69
2021/07/06 08:07:18;;;;;;;1.88;0.70;;;;;;;;;;4979868;28;20062;-68
2021/07/06 08:09:45;;;;;;;1.63;1.00;;;;;;;;;;4977463;28;20490;-68
2021/07/06 08:12:11;;;;;;;0.93;0.80;;;;;;;;;;4978361;28;20055;-68
2021/07/06 08:14:38;;;;;;;1.65;0.88;;;;;;;;;;4977883;28;20078;-68
2021/07/06 08:17:04;;;;;;;1.73;0.90;;;;;;;;;;4976120;28;20047;-68
2021/07/06 08:19:31;;;;;;;2.30;0.90;;;;;;;;;;4977158;28;20046;-68
2021/07/06 08:21:59;;;;;;;2.47;0.63;;;;;;;;;;4980557;28;20124;-68
2021/07/06 08:24:26;;;;;;;2.55;0.90;;;;;;;;;;4983505;28;20082;-68
2021/07/06 08:26:52;;;;;;;2.00;0.90;;;;;;;;;;4981719;28;20074;-69
2021/07/06 08:29:19;;;;;;;2.75;0.80;;;;;;;;;;4982538;28;20057;-68
2021/07/06 08:31:45;;;;;;;4.22;1.00;;;;;;;;;;4980737;28;20540;-68
2021/07/06 08:34:13;;;;;;;2.33;0.80;;;;;;;;;;4979380;28;20058;-68
2021/07/06 08:36:41;;;;;;;1.27;0.70;;;;;;;;;;4980135;28;20057;-68
2021/07/06 08:39:08;;;;;;;1.15;1.05;;;;;;;;;;4980382;28;20046;-69
2021/07/06 08:41:35;;;;;;;2.50;0.93;;;;;;;;;;4981450;28;20082;-69
2021/07/06 08:44:03;;;;;;;1.67;0.80;;;;;;;;;;4980454;28;20514;-68
2021/07/06 08:46:30;;;;;;;0.90;0.80;;;;;;;;;;4979975;28;20054;-68
2021/07/06 08:48:57;;;;;;;2.88;1.00;;;;;;;;;;4979388;28;20112;-68
2021/07/06 08:51:23;;;;;;;1.48;0.80;;;;;;;;;;4964002;28;20089;-68
2021/07/06 08:53:51;;;;;;;0.95;0.80;;;;;;;;;;4982965;28;20046;-68
2021/07/06 08:56:18;;;;;;;3.97;1.15;;;;;;;;;;4985208;28;20121;-68
2021/07/06 08:58:45;;;;;;;1.20;0.70;;;;;;;;;;4989784;28;20054;-70
2021/07/06 09:01:12;;;;;;;1.23;0.70;;;;;;;;;;4984491;28;20054;-67
2021/07/06 09:03:56;;;;;;;1.38;0.70;;;;;;;;;;4980403;28;20074;-67
2021/07/06 09:06:28;;;;;;;1.88;0.68;;;;;;;;;;4980490;28;20054;-67
2021/07/06 09:09:20;;;;;;;1.08;0.80;;;;;;;;;;4985588;28;20058;-66
2021/07/06 09:11:52;;;;;;;1.63;0.90;;;;;;;;;;4975480;28;20179;-67
2021/07/06 09:14:20;;;;;;;1.63;0.70;;;;;;;;;;4974575;28;20097;-66
2021/07/06 09:16:47;;;;;;;0.70;0.70;;;;;;;;;;4975017;28;20094;-66
2021/07/06 09:19:25;;;;;;;2.22;0.75;;;;;;;;;;4973539;28;20141;-66
2021/07/06 09:22:18;;;;;;;2.03;0.90;;;;;;;;;;4955764;29;20089;-66
2021/07/06 09:24:50;;;;;;;4.00;1.50;;;;;;;;;;4951441;29;20086;-66
2021/07/06 09:27:30;;;;;;;3.50;1.30;;;;;;;;;;4956370;29;20086;-65
2021/07/06 09:30:15;;;;;;;3.83;1.50;;;;;;;;;;4956774;28;20051;-65
2021/07/06 09:32:47;;;;;;;4.60;1.33;;;;;;;;;;4966040;28;20058;-66
2021/07/06 09:35:23;;;;;;;2.83;1.20;;;;;;;;;;4974163;28;20055;-65
2021/07/06 09:37:50;;;;;;;4.00;1.05;;;;;;;;;;4974783;28;20524;-67
2021/07/06 09:40:33;;;;;;;2.92;1.10;;;;;;;;;;4960944;28;20154;-69
2021/07/06 09:43:20;;;;;;;3.03;1.08;;;;;;;;;;4958380;28;20520;-72
2021/07/06 09:45:54;;;;;;;4.28;1.00;;;;;;;;;;4964745;28;20050;-71
2021/07/06 09:48:21;;;;;;;1.13;1.00;;;;;;;;;;4964537;28;20055;-73
2021/07/06 09:50:47;;;;;;;2.40;1.05;;;;;;;;;;4944882;28;20109;-73
2021/07/06 09:53:25;;;;;;;1.33;0.70;;;;;;;;;;4935805;29;20051;-71
2021/07/06 09:55:52;;;;;;;1.83;0.75;;;;;;;;;;4964118;28;20074;-69
2021/07/06 09:58:18;;;;;;;1.67;0.60;;;;;;;;;;4964869;28;20078;-70
2021/07/06 10:00:45;;;;;;;2.65;1.20;;;;;;;;;;4965884;28;20051;-71
2021/07/06 10:03:12;;;;;;;0.50;0.43;;;;;;;;;;4963795;28;20047;-70
2021/07/06 10:05:39;;;;;;;1.10;0.73;;;;;;;;;;4966070;28;20089;-68
2021/07/06 10:08:05;;;;;;;0.95;0.60;;;;;;;;;;4953103;28;20082;-68
2021/07/06 10:10:32;;;;;;;0.40;0.40;;;;;;;;;;4963204;28;20114;-68
2021/07/06 10:12:58;;;;;;;0.50;0.45;;;;;;;;;;4965803;28;20093;-68
2021/07/06 10:15:25;;;;;;;1.08;0.40;;;;;;;;;;4934998;28;20051;-70
2021/07/06 10:17:52;;;;;;;1.70;0.40;;;;;;;;;;4962991;28;20055;-69
2021/07/06 10:20:27;;;;;;;0.70;0.45;;;;;;;;;;4964372;28;20082;-71
2021/07/06 10:23:02;;;;;;;0.85;0.45;;;;;;;;;;4952367;28;20079;-70
2021/07/06 10:25:31;;;;;;;1.52;0.50;;;;;;;;;;4952277;28;20081;-71
2021/07/06 10:28:02;;;;;;;0.45;0.30;;;;;;;;;;4963197;28;20094;-70
2021/07/06 10:30:41;;;;;;;1.02;0.57;;;;;;;;;;4948003;28;20055;-70
2021/07/06 10:33:34;;;;;;;1.33;0.40;;;;;;;;;;4961912;28;20085;-70
2021/07/06 10:36:02;;;;;;;0.88;0.73;;;;;;;;;;4961324;28;20046;-69
2021/07/06 10:38:32;;;;;;;1.17;0.40;;;;;;;;;;4963762;28;20082;-70
2021/07/06 10:40:58;;;;;;;0.60;0.50;;;;;;;;;;4961658;28;20448;-69
2021/07/06 10:43:37;;;;;;;1.65;0.47;;;;;;;;;;4963722;28;20122;-67
2021/07/06 10:46:22;;;;;;;0.80;0.60;;;;;;;;;;4960743;28;20078;-74
2021/07/06 10:49:15;;;;;;;1.52;0.68;;;;;;;;;;4952280;28;20476;-71
2021/07/06 10:51:44;;;;;;;0.43;0.40;;;;;;;;;;4952496;28;20059;-73
2021/07/06 10:54:24;;;;;;;0.68;0.40;;;;;;;;;;4965038;28;20141;-71
2021/07/06 10:57:06;;;;;;;1.75;0.52;;;;;;;;;;4963065;28;20043;-74
2021/07/06 10:59:35;;;;;;;0.40;0.40;;;;;;;;;;4964245;28;20051;-70
2021/07/06 11:02:03;;;;;;;4.00;0.75;;;;;;;;;;4965520;28;20055;-71
2021/07/06 11:04:51;;;;;;;1.38;0.40;;;;;;;;;;4964149;28;20102;-72
2021/07/06 11:07:29;;;;;;;1.30;0.40;;;;;;;;;;4963448;28;20110;-73
2021/07/06 11:09:56;;;;;;;1.30;0.47;;;;;;;;;;4962363;28;20061;-70
2021/07/06 11:12:30;;;;;;;0.85;0.60;;;;;;;;;;4962149;28;20079;-70
2021/07/06 11:15:19;;;;;;;0.40;0.40;;;;;;;;;;4952901;28;20042;-70
2021/07/06 11:17:47;;;;;;;0.40;0.40;;;;;;;;;;4961842;28;20089;-70
2021/07/06 11:20:18;;;;;;;0.93;0.65;;;;;;;;;;4967163;28;20050;-70
2021/07/06 11:22:54;;;;;;;0.50;0.50;;;;;;;;;;4968870;28;20047;-70
2021/07/06 11:25:30;;;;;;;1.70;0.70;;;;;;;;;;4961754;28;20138;-70
2021/07/06 11:28:04;;;;;;;0.95;0.60;;;;;;;;;;4964313;28;20051;-72
2021/07/06 11:30:50;;;;;;;0.65;0.43;;;;;;;;;;4964640;28;20592;-69
2021/07/06 11:33:24;;;;;;;0.90;0.50;;;;;;;;;;4962231;28;20798;-71
2021/07/06 11:35:56;;;;;;;1.20;0.50;;;;;;;;;;4965049;28;20054;-66
2021/07/06 11:38:25;;;;;;;1.17;0.50;;;;;;;;;;4968202;28;20550;-67
2021/07/06 11:40:54;;;;;;;0.32;0.32;;;;;;;;;;4968798;28;20528;-66
2021/07/06 11:43:22;;;;;;;1.25;0.70;;;;;;;;;;4968926;28;20536;-66
2021/07/06 11:45:50;;;;;;;0.73;0.50;;;;;;;;;;4968375;28;20066;-66
2021/07/06 11:48:17;;;;;;;0.70;0.60;;;;;;;;;;4969731;28;20138;-66
2021/07/06 11:50:46;;;;;;;0.50;0.50;;;;;;;;;;4962917;28;20043;-66
2021/07/06 11:53:13;;;;;;;0.22;0.20;;;;;;;;;;4964722;28;20059;-66
2021/07/06 11:55:41;;;;;;;0.85;0.43;;;;;;;;;;4955856;28;20055;-66
2021/07/06 11:58:10;;;;;;;1.38;0.60;;;;;;;;;;4969406;28;20082;-66
2021/07/06 12:00:40;;;;;;;2.15;0.40;;;;;;;;;;4966098;28;20054;-66
2021/07/06 12:03:25;;;;;;;0.30;0.30;;;;;;;;;;4969142;28;20051;-67
2021/07/06 12:06:03;;;;;;;0.43;0.43;;;;;;;;;;4969459;28;20142;-66
2021/07/06 12:08:32;;;;;;;1.58;0.50;;;;;;;;;;4969595;28;20473;-66
2021/07/06 12:11:18;;;;;;;0.50;0.45;;;;;;;;;;4968261;28;20047;-66
2021/07/06 12:13:47;;;;;;;4.20;1.10;;;;;;;;;;4965174;28;20109;-66
2021/07/06 12:16:19;;;;;;;2.42;0.50;;;;;;;;;;4964052;28;20610;-66
2021/07/06 12:18:58;;;;;;;0.68;0.50;;;;;;;;;;4968666;28;20055;-66
2021/07/06 12:21:36;;;;;;;0.40;0.40;;;;;;;;;;4966253;28;20152;-66
2021/07/06 12:24:06;;;;;;;2.15;0.50;;;;;;;;;;4967886;28;20101;-66
2021/07/06 12:26:35;;;;;;;0.40;0.40;;;;;;;;;;4968033;28;20146;-66
2021/07/06 12:29:02;;;;;;;0.90;0.50;;;;;;;;;;4958347;28;20082;-66
2021/07/06 12:31:36;;;;;;;0.35;0.35;;;;;;;;;;4964960;28;20710;-66
2021/07/06 12:34:15;;;;;;;2.60;0.52;;;;;;;;;;4966862;28;20050;-66
2021/07/06 12:36:58;;;;;;;1.75;0.45;;;;;;;;;;4968620;28;20062;-66
2021/07/06 12:39:29;;;;;;;0.75;0.40;;;;;;;;;;4967257;28;20426;-66
2021/07/06 12:42:03;;;;;;;0.45;0.40;;;;;;;;;;4968413;28;20785;-66
2021/07/06 12:44:33;;;;;;;0.57;0.40;;;;;;;;;;4969168;28;20082;-66
2021/07/06 12:47:18;;;;;;;0.63;0.52;;;;;;;;;;4966604;28;20490;-66
2021/07/06 12:49:55;;;;;;;1.35;0.40;;;;;;;;;;4968675;28;20126;-66
2021/07/06 12:52:23;;;;;;;1.17;0.40;;;;;;;;;;4965445;28;20086;-66
2021/07/06 12:54:50;;;;;;;0.40;0.40;;;;;;;;;;4968454;28;20079;-66
2021/07/06 12:57:28;;;;;;;1.40;0.40;;;;;;;;;;4968389;28;20133;-66
2021/07/06 13:00:24;;;;;;;0.60;0.50;;;;;;;;;;4956194;28;20057;-66
2021/07/06 13:03:05;;;;;;;1.75;0.60;;;;;;;;;;4968280;28;20466;-66
2021/07/06 13:06:02;;;;;;;0.30;0.30;;;;;;;;;;4965544;28;20039;-66
2021/07/06 13:08:52;;;;;;;0.38;0.30;;;;;;;;;;4965474;28;20544;-66
2021/07/06 13:11:25;;;;;;;0.65;0.30;;;;;;;;;;4968379;28;20071;-66
2021/07/06 13:13:53;;;;;;;0.60;0.50;;;;;;;;;;4967741;28;20106;-66
2021/07/06 13:16:26;;;;;;;1.45;0.40;;;;;;;;;;4968256;28;20501;-66
2021/07/06 13:18:53;;;;;;;0.30;0.30;;;;;;;;;;4966760;28;20051;-66
2021/07/06 13:21:26;;;;;;;0.93;0.50;;;;;;;;;;4964962;28;20158;-66
2021/07/06 13:23:54;;;;;;;0.80;0.30;;;;;;;;;;4956635;28;20476;-66
2021/07/06 13:26:20;;;;;;;0.77;0.40;;;;;;;;;;4967718;28;20097;-66
2021/07/06 13:28:49;;;;;;;1.17;0.40;;;;;;;;;;4966826;28;20055;-66
2021/07/06 13:31:18;;;;;;;1.33;0.30;;;;;;;;;;4967250;28;20051;-66
2021/07/06 13:33:45;;;;;;;1.15;0.50;;;;;;;;;;4967956;28;20051;-66
2021/07/06 13:36:27;;;;;;;3.33;0.43;;;;;;;;;;4966597;28;20058;-66
2021/07/06 13:38:54;;;;;;;0.40;0.40;;;;;;;;;;4967603;28;20055;-66
2021/07/06 13:41:21;;;;;;;0.77;0.50;;;;;;;;;;4965980;28;20079;-66
2021/07/06 13:43:47;;;;;;;1.90;0.60;;;;;;;;;;4967595;28;20089;-65
2021/07/06 13:46:15;;;;;;;0.40;0.40;;;;;;;;;;4970479;28;20541;-66
2021/07/06 13:48:42;;;;;;;0.50;0.50;;;;;;;;;;4966546;28;20469;-66
2021/07/06 13:51:08;;;;;;;0.73;0.60;;;;;;;;;;4966730;28;20134;-69
2021/07/06 13:53:35;;;;;;;1.50;0.45;;;;;;;;;;4966346;28;20088;-66
2021/07/06 13:56:02;;;;;;;2.72;0.63;;;;;;;;;;4967075;28;20105;-67
2021/07/06 13:58:28;;;;;;;1.10;0.50;;;;;;;;;;4954358;28;20161;-68
2021/07/06 14:00:55;;;;;;;0.40;0.40;;;;;;;;;;4970640;28;20093;-68
2021/07/06 14:03:22;;;;;;;0.40;0.40;;;;;;;;;;4971603;28;20046;-67
2021/07/06 14:05:49;;;;;;;1.15;0.40;;;;;;;;;;4968496;28;20070;-67
2021/07/06 14:08:16;;;;;;;0.50;0.50;;;;;;;;;;4970335;28;20490;-68
2021/07/06 14:10:43;;;;;;;1.00;0.73;;;;;;;;;;4970291;28;20098;-68
2021/07/06 14:13:10;;;;;;;0.77;0.43;;;;;;;;;;4971549;28;20093;-68
2021/07/06 14:15:37;;;;;;;0.45;0.45;;;;;;;;;;4969935;28;20066;-68
2021/07/06 14:18:04;;;;;;;0.73;0.40;;;;;;;;;;4962637;28;20558;-68
2021/07/06 14:20:46;;;;;;;0.30;0.30;;;;;;;;;;4966002;28;20047;-68
2021/07/06 14:23:13;;;;;;;0.40;0.40;;;;;;;;;;4963820;28;20081;-67
2021/07/06 14:25:43;;;;;;;0.65;0.50;;;;;;;;;;4963661;28;20560;-67
2021/07/06 14:28:10;;;;;;;1.17;0.47;;;;;;;;;;4966806;28;20093;-67
2021/07/06 14:30:37;;;;;;;0.80;0.50;;;;;;;;;;4963950;28;20075;-67
2021/07/06 14:33:04;;;;;;;2.15;0.40;;;;;;;;;;4970581;28;20089;-68
2021/07/06 14:35:33;;;;;;;0.47;0.47;;;;;;;;;;4964631;28;20058;-67
2021/07/06 14:37:59;;;;;;;2.13;0.45;;;;;;;;;;4966114;28;20533;-67
2021/07/06 14:40:26;;;;;;;0.57;0.50;;;;;;;;;;4965920;28;20074;-67
2021/07/06 14:42:53;;;;;;;0.43;0.43;;;;;;;;;;4969231;28;20066;-67
2021/07/06 14:45:20;;;;;;;1.17;0.88;;;;;;;;;;4970801;28;20049;-67
2021/07/06 14:47:46;;;;;;;1.20;0.68;;;;;;;;;;4968503;28;20077;-67
2021/07/06 14:50:16;;;;;;;0.60;0.60;;;;;;;;;;4970734;28;20053;-67
2021/07/06 14:52:44;;;;;;;0.50;0.50;;;;;;;;;;4969356;28;20113;-68
2021/07/06 14:55:12;;;;;;;0.40;0.40;;;;;;;;;;4969869;28;20057;-67